createdAt,value
2019-03-24T00:00:05.421Z,10.78
2019-03-24T00:03:09.277Z,10.91
2019-03-24T00:06:13.043Z,10.81
2019-03-24T00:09:16.362Z,10.77
2019-03-24T00:12:20.176Z,10.76
2019-03-24T00:15:26.424Z,10.87
2019-03-24T00:18:29.084Z,10.80
2019-03-24T00:21:32.440Z,10.93
2019-03-24T00:24:35.752Z,11.04
2019-03-24T00:27:39.091Z,11.14
2019-03-24T00:30:42.408Z,11.16
2019-03-24T00:33:46.115Z,11.06
2019-03-24T00:36:49.483Z,11.06
2019-03-24T00:39:52.815Z,10.98
2019-03-24T00:42:56.151Z,11.10
2019-03-24T00:46:00.165Z,11.03
2019-03-24T00:49:04.952Z,10.95
2019-03-24T00:52:09.565Z,10.90
2019-03-24T00:55:12.956Z,10.95
2019-03-24T00:58:16.265Z,11.22
2019-03-24T01:01:19.666Z,11.30
2019-03-24T01:04:23.015Z,11.05
2019-03-24T01:07:26.333Z,11.20
2019-03-24T01:10:29.630Z,11.21
2019-03-24T01:13:32.987Z,11.27
2019-03-24T01:16:36.320Z,11.13
2019-03-24T01:19:39.667Z,11.26
2019-03-24T01:22:42.975Z,11.18
2019-03-24T01:25:46.287Z,11.25
2019-03-24T01:28:49.615Z,11.03
2019-03-24T01:31:52.939Z,10.81
2019-03-24T01:34:56.256Z,10.87
2019-03-24T01:37:59.559Z,10.97
2019-03-24T01:41:03.071Z,10.90
2019-03-24T01:44:06.402Z,10.76
2019-03-24T01:47:09.736Z,10.78
2019-03-24T01:50:13.047Z,10.94
2019-03-24T01:53:16.379Z,10.77
2019-03-24T01:56:19.704Z,10.91
2019-03-24T01:59:23.013Z,10.95
2019-03-24T02:02:26.360Z,10.85
2019-03-24T02:05:29.677Z,11.22
2019-03-24T02:08:33.004Z,11.34
2019-03-24T02:11:36.333Z,11.08
2019-03-24T02:14:39.650Z,10.91
2019-03-24T02:17:42.979Z,10.82
2019-03-24T02:20:46.297Z,10.84
2019-03-24T02:23:49.630Z,10.74
2019-03-24T02:26:52.968Z,10.85
2019-03-24T02:29:56.303Z,10.72
2019-03-24T02:32:59.631Z,10.74
2019-03-24T02:36:03.020Z,10.62
2019-03-24T02:39:07.547Z,10.61
2019-03-24T02:42:10.850Z,10.60
2019-03-24T02:45:14.204Z,10.52
2019-03-24T02:48:17.534Z,10.56
2019-03-24T02:51:20.890Z,10.61
2019-03-24T02:54:24.206Z,10.60
2019-03-24T02:57:27.552Z,10.66
2019-03-24T03:00:30.914Z,10.69
2019-03-24T03:03:39.859Z,10.57
2019-03-24T03:06:48.038Z,10.64
2019-03-24T03:09:51.344Z,10.68
2019-03-24T03:12:54.743Z,10.65
2019-03-24T03:15:58.100Z,10.65
2019-03-24T03:19:01.602Z,10.58
2019-03-24T03:22:04.986Z,10.64
2019-03-24T03:25:12.286Z,10.83
2019-03-24T03:28:18.671Z,10.65
2019-03-24T03:31:22.060Z,10.71
2019-03-24T03:34:25.417Z,10.79
2019-03-24T03:37:28.921Z,10.74
2019-03-24T03:40:32.360Z,10.80
2019-03-24T03:43:35.685Z,10.83
2019-03-24T03:46:52.297Z,10.88
2019-03-24T03:49:49.433Z,10.73
2019-03-24T03:52:52.766Z,10.87
2019-03-24T03:55:56.086Z,10.74
2019-03-24T03:59:01.067Z,10.69
2019-03-24T04:02:07.478Z,10.60
2019-03-24T04:05:10.880Z,10.61
2019-03-24T04:08:14.207Z,10.58
2019-03-24T04:11:20.938Z,10.52
2019-03-24T04:14:24.185Z,10.72
2019-03-24T04:17:27.535Z,10.61
2019-03-24T04:20:30.854Z,10.80
2019-03-24T04:23:34.173Z,10.76
2019-03-24T04:26:37.541Z,10.69
2019-03-24T04:29:43.534Z,10.55
2019-03-24T04:32:48.679Z,10.43
2019-03-24T04:35:51.984Z,10.52
2019-03-24T04:38:55.449Z,10.67
2019-03-24T04:41:58.806Z,10.45
2019-03-24T04:45:02.125Z,10.58
2019-03-24T04:48:05.475Z,10.56
2019-03-24T04:51:08.824Z,10.64
2019-03-24T04:54:12.146Z,10.70
2019-03-24T04:57:15.506Z,10.56
2019-03-24T05:00:22.121Z,10.38
2019-03-24T05:03:25.441Z,10.13
2019-03-24T05:06:28.838Z,10.00
2019-03-24T05:09:32.336Z,10.05
2019-03-24T05:12:35.641Z,10.07
2019-03-24T05:15:38.936Z,10.28
2019-03-24T05:18:42.543Z,10.23
2019-03-24T05:21:45.872Z,10.05
2019-03-24T05:24:49.233Z,9.82
2019-03-24T05:27:52.894Z,9.77
2019-03-24T05:30:56.296Z,9.97
2019-03-24T05:33:59.645Z,9.94
2019-03-24T05:37:03.036Z,9.97
2019-03-24T05:40:06.640Z,9.74
2019-03-24T05:43:10.124Z,9.73
2019-03-24T05:46:13.547Z,9.79
2019-03-24T05:49:16.965Z,9.82
2019-03-24T05:52:20.348Z,9.72
2019-03-24T05:55:23.722Z,9.65
2019-03-24T05:58:27.101Z,9.72
2019-03-24T06:01:30.604Z,9.94
2019-03-24T06:04:34.055Z,10.01
2019-03-24T06:07:37.412Z,9.80
2019-03-24T06:10:41.074Z,9.60
2019-03-24T06:13:46.029Z,9.64
2019-03-24T06:16:49.296Z,9.70
2019-03-24T06:19:54.288Z,9.63
2019-03-24T06:22:57.620Z,9.41
2019-03-24T06:26:02.672Z,9.53
2019-03-24T06:29:06.101Z,9.49
2019-03-24T06:32:09.622Z,9.67
2019-03-24T06:35:13.080Z,9.60
2019-03-24T06:38:16.403Z,9.53
2019-03-24T06:41:19.965Z,9.31
2019-03-24T06:44:23.306Z,9.42
2019-03-24T06:47:26.811Z,9.58
2019-03-24T06:50:31.823Z,9.38
2019-03-24T06:53:36.781Z,9.28
2019-03-24T06:56:41.908Z,9.37
2019-03-24T06:59:45.175Z,9.19
2019-03-24T07:02:48.631Z,9.23
2019-03-24T07:05:53.631Z,9.25
2019-03-24T07:08:58.240Z,9.33
2019-03-24T07:12:01.527Z,9.44
2019-03-24T07:15:06.734Z,9.39
2019-03-24T07:18:11.735Z,9.43
2019-03-24T07:21:22.172Z,9.52
2019-03-24T07:24:25.677Z,9.45
2019-03-24T07:27:29.003Z,8.90
2019-03-24T07:30:32.337Z,8.88
2019-03-24T07:33:35.909Z,8.97
2019-03-24T07:36:39.506Z,9.00
2019-03-24T07:39:42.821Z,9.12
2019-03-24T07:42:46.168Z,9.22
2019-03-24T07:45:49.598Z,9.25
2019-03-24T07:48:52.911Z,9.17
2019-03-24T07:51:56.341Z,8.85
2019-03-24T07:54:59.699Z,9.10
2019-03-24T07:58:03.100Z,9.16
2019-03-24T08:01:06.452Z,9.15
2019-03-24T08:04:11.407Z,9.32
2019-03-24T08:07:16.448Z,9.32
2019-03-24T08:10:19.886Z,9.28
2019-03-24T08:13:23.327Z,9.08
2019-03-24T08:16:26.678Z,9.50
2019-03-24T08:19:30.174Z,9.41
2019-03-24T08:22:33.714Z,9.50
2019-03-24T08:25:37.001Z,9.54
2019-03-24T08:28:40.354Z,9.62
2019-03-24T08:31:43.778Z,9.52
2019-03-24T08:34:48.422Z,9.53
2019-03-24T08:37:52.119Z,9.75
2019-03-24T08:40:55.415Z,9.75
2019-03-24T08:43:58.754Z,9.78
2019-03-24T08:47:02.102Z,9.79
2019-03-24T08:50:07.243Z,9.82
2019-03-24T08:53:10.561Z,9.86
2019-03-24T08:56:14.063Z,9.89
2019-03-24T08:59:17.400Z,9.77
2019-03-24T09:02:20.867Z,9.73
2019-03-24T09:05:24.165Z,9.74
2019-03-24T09:08:27.495Z,9.59
2019-03-24T09:11:31.675Z,9.72
2019-03-24T09:14:35.142Z,9.78
2019-03-24T09:17:40.975Z,9.91
2019-03-24T09:20:43.532Z,10.05
2019-03-24T09:23:46.883Z,10.15
2019-03-24T09:26:50.209Z,10.29
2019-03-24T09:29:53.553Z,10.44
2019-03-24T09:32:56.884Z,10.36
2019-03-24T09:36:00.281Z,10.47
2019-03-24T09:39:04.988Z,10.71
2019-03-24T09:42:08.304Z,10.83
2019-03-24T09:45:11.627Z,10.75
2019-03-24T09:48:14.951Z,10.96
2019-03-24T09:51:18.283Z,11.07
2019-03-24T09:54:21.635Z,11.11
2019-03-24T09:57:24.924Z,11.05
2019-03-24T10:00:28.278Z,11.08
2019-03-24T10:03:31.600Z,10.95
2019-03-24T10:06:34.917Z,10.95
2019-03-24T10:09:38.300Z,10.99
2019-03-24T10:12:41.647Z,11.30
2019-03-24T10:15:44.955Z,11.26
2019-03-24T10:18:48.370Z,11.31
2019-03-24T10:21:51.760Z,11.43
2019-03-24T10:24:55.057Z,11.71
2019-03-24T10:27:58.395Z,11.85
2019-03-24T10:31:01.764Z,11.93
2019-03-24T10:34:05.084Z,11.65
2019-03-24T10:37:08.439Z,11.81
2019-03-24T10:40:12.526Z,11.64
2019-03-24T10:43:15.859Z,11.62
2019-03-24T10:46:19.190Z,11.72
2019-03-24T10:49:25.012Z,11.69
2019-03-24T10:52:27.561Z,12.09
2019-03-24T10:55:30.890Z,12.25
2019-03-24T10:58:34.245Z,12.70
2019-03-24T11:01:37.538Z,12.68
2019-03-24T11:04:40.879Z,12.79
2019-03-24T11:07:44.233Z,12.96
2019-03-24T11:10:47.540Z,12.66
2019-03-24T11:13:50.879Z,12.84
2019-03-24T11:16:54.181Z,12.79
2019-03-24T11:19:57.520Z,12.38
2019-03-24T11:23:00.874Z,12.51
2019-03-24T11:26:04.180Z,12.57
2019-03-24T11:29:07.522Z,12.64
2019-03-24T11:32:10.842Z,12.47
2019-03-24T11:35:14.168Z,11.86
2019-03-24T11:38:17.504Z,12.06
2019-03-24T11:41:20.852Z,12.01
2019-03-24T11:44:24.218Z,12.10
2019-03-24T11:47:27.485Z,11.74
2019-03-24T11:50:30.806Z,11.51
2019-03-24T11:53:34.204Z,11.65
2019-03-24T11:56:37.526Z,11.96
2019-03-24T11:59:40.877Z,11.83
2019-03-24T12:02:44.313Z,11.88
2019-03-24T12:05:47.627Z,11.79
2019-03-24T12:08:51.185Z,11.76
2019-03-24T12:11:54.534Z,11.80
2019-03-24T12:14:57.847Z,12.02
2019-03-24T12:18:01.189Z,11.97
2019-03-24T12:21:04.523Z,11.64
2019-03-24T12:24:07.830Z,11.69
2019-03-24T12:27:11.198Z,11.57
2019-03-24T12:30:14.484Z,11.62
2019-03-24T12:33:17.822Z,11.45
2019-03-24T12:36:21.156Z,11.60
2019-03-24T12:39:24.472Z,11.79
2019-03-24T12:42:27.817Z,11.73
2019-03-24T12:45:33.517Z,11.82
2019-03-24T12:48:36.207Z,11.81
2019-03-24T12:51:39.562Z,11.78
2019-03-24T12:54:42.903Z,11.95
2019-03-24T12:57:46.209Z,12.31
2019-03-24T13:00:49.532Z,12.27
2019-03-24T13:03:52.867Z,12.14
2019-03-24T13:06:56.191Z,12.04
2019-03-24T13:09:59.530Z,11.90
2019-03-24T13:13:02.936Z,11.70
2019-03-24T13:16:06.261Z,11.50
2019-03-24T13:19:09.578Z,11.33
2019-03-24T13:22:12.918Z,11.38
2019-03-24T13:25:16.215Z,11.30
2019-03-24T13:28:19.576Z,11.22
2019-03-24T13:31:22.913Z,11.13
2019-03-24T13:34:26.214Z,11.26
2019-03-24T13:37:29.538Z,11.12
2019-03-24T13:40:32.851Z,11.15
2019-03-24T13:43:36.179Z,11.01
2019-03-24T13:46:39.526Z,11.02
2019-03-24T13:49:42.836Z,10.94
2019-03-24T13:52:46.179Z,11.20
2019-03-24T13:55:49.555Z,11.19
2019-03-24T13:58:52.959Z,11.24
2019-03-24T14:01:56.318Z,11.15
2019-03-24T14:04:59.693Z,10.95
2019-03-24T14:08:03.013Z,10.94
2019-03-24T14:11:06.359Z,11.04
2019-03-24T14:14:09.688Z,10.96
2019-03-24T14:17:13.333Z,10.89
2019-03-24T14:20:16.649Z,10.88
2019-03-24T14:23:19.991Z,10.83
2019-03-24T14:26:23.296Z,10.93
2019-03-24T14:29:27.234Z,11.14
2019-03-24T14:32:30.675Z,11.38
2019-03-24T14:35:33.994Z,11.19
2019-03-24T14:38:37.310Z,11.32
2019-03-24T14:41:40.667Z,11.07
2019-03-24T14:44:43.997Z,11.28
2019-03-24T14:47:47.312Z,11.49
2019-03-24T14:50:54.860Z,11.29
2019-03-24T14:53:55.686Z,11.29
2019-03-24T14:56:59.023Z,11.43
2019-03-24T15:00:02.732Z,11.42
2019-03-24T15:03:06.064Z,11.61
2019-03-24T15:06:09.407Z,11.41
2019-03-24T15:09:12.746Z,11.39
2019-03-24T15:12:16.073Z,11.70
2019-03-24T15:15:19.474Z,11.48
2019-03-24T15:18:22.797Z,11.46
2019-03-24T15:21:26.130Z,11.72
2019-03-24T15:24:29.479Z,11.65
2019-03-24T15:27:32.783Z,11.76
2019-03-24T15:30:36.143Z,11.73
2019-03-24T15:33:39.492Z,11.86
2019-03-24T15:36:42.815Z,11.70
2019-03-24T15:39:46.134Z,11.56
2019-03-24T15:42:49.459Z,11.41
2019-03-24T15:45:52.816Z,11.57
2019-03-24T15:48:56.178Z,11.42
2019-03-24T15:51:59.500Z,11.30
2019-03-24T15:55:03.316Z,11.30
2019-03-24T15:58:06.611Z,11.28
2019-03-24T16:01:09.945Z,11.21
2019-03-24T16:04:13.268Z,11.45
2019-03-24T16:07:16.610Z,11.11
2019-03-24T16:10:19.944Z,11.49
2019-03-24T16:13:23.264Z,11.28
2019-03-24T16:16:26.746Z,11.29
2019-03-24T16:19:30.105Z,11.24
2019-03-24T16:22:33.398Z,11.31
2019-03-24T16:25:36.764Z,11.27
2019-03-24T16:28:40.098Z,11.32
2019-03-24T16:31:43.439Z,11.49
2019-03-24T16:34:46.805Z,11.43
2019-03-24T16:37:50.094Z,11.40
2019-03-24T16:40:53.449Z,11.34
2019-03-24T16:43:56.819Z,11.54
2019-03-24T16:47:00.169Z,11.23
2019-03-24T16:50:05.137Z,11.01
2019-03-24T16:53:08.455Z,10.81
2019-03-24T16:56:11.781Z,10.66
2019-03-24T16:59:15.157Z,10.88
2019-03-24T17:02:18.479Z,11.04
2019-03-24T17:05:21.832Z,11.02
2019-03-24T17:08:25.307Z,11.05
2019-03-24T17:11:28.620Z,10.91
2019-03-24T17:14:31.972Z,10.98
2019-03-24T17:17:35.301Z,10.93
2019-03-24T17:20:38.701Z,10.59
2019-03-24T17:23:42.041Z,10.79
2019-03-24T17:26:45.367Z,11.01
2019-03-24T17:29:48.698Z,10.87
2019-03-24T17:32:52.035Z,10.88
2019-03-24T17:35:55.431Z,10.84
2019-03-24T17:38:58.737Z,10.80
2019-03-24T17:42:02.142Z,10.66
2019-03-24T17:45:10.260Z,10.53
2019-03-24T17:48:13.577Z,10.47
2019-03-24T17:51:16.913Z,10.32
2019-03-24T17:54:20.327Z,10.37
2019-03-24T17:57:23.649Z,10.22
2019-03-24T18:00:43.166Z,10.33
2019-03-24T18:03:46.490Z,10.18
2019-03-24T18:06:49.812Z,10.12
2019-03-24T18:09:53.132Z,10.10
2019-03-24T18:12:56.468Z,10.02
2019-03-24T18:15:59.811Z,10.43
2019-03-24T18:19:03.190Z,10.47
2019-03-24T18:22:11.550Z,10.17
2019-03-24T18:25:11.569Z,10.07
2019-03-24T18:28:14.928Z,9.93
2019-03-24T18:31:18.227Z,9.88
2019-03-24T18:34:21.575Z,10.01
2019-03-24T18:37:24.917Z,9.87
2019-03-24T18:40:28.244Z,9.97
2019-03-24T18:43:31.570Z,9.71
2019-03-24T18:46:34.898Z,9.41
2019-03-24T18:49:38.270Z,9.39
2019-03-24T18:52:41.661Z,9.48
2019-03-24T18:55:44.983Z,9.73
2019-03-24T18:58:48.358Z,9.81
2019-03-24T19:01:51.645Z,9.88
2019-03-24T19:04:55.045Z,9.80
2019-03-24T19:07:58.389Z,9.95
2019-03-24T19:11:01.733Z,9.97
2019-03-24T19:14:05.246Z,9.67
2019-03-24T19:17:10.130Z,9.43
2019-03-24T19:20:14.591Z,9.39
2019-03-24T19:23:17.907Z,9.41
2019-03-24T19:26:21.241Z,9.38
2019-03-24T19:29:24.579Z,9.37
2019-03-24T19:32:28.499Z,9.38
2019-03-24T19:35:31.992Z,9.40
2019-03-24T19:38:35.991Z,9.26
2019-03-24T19:41:39.338Z,9.35
2019-03-24T19:44:43.180Z,9.50
2019-03-24T19:47:46.506Z,9.43
2019-03-24T19:50:49.866Z,9.47
2019-03-24T19:53:53.955Z,9.40
2019-03-24T19:56:58.080Z,9.13
2019-03-24T20:00:01.593Z,9.25
2019-03-24T20:03:05.101Z,9.29
2019-03-24T20:06:09.105Z,9.31
2019-03-24T20:09:12.683Z,9.12
2019-03-24T20:12:16.029Z,9.06
2019-03-24T20:15:19.565Z,9.16
2019-03-24T20:18:23.387Z,9.22
2019-03-24T20:21:32.125Z,9.18
2019-03-24T20:24:35.678Z,9.29
2019-03-24T20:27:39.013Z,9.24
2019-03-24T20:30:42.356Z,9.10
2019-03-24T20:33:45.712Z,9.12
2019-03-24T20:36:49.064Z,9.14
2019-03-24T20:39:52.568Z,9.25
2019-03-24T20:42:55.902Z,9.04
2019-03-24T20:45:59.534Z,9.09
2019-03-24T20:49:02.855Z,9.21
2019-03-24T20:52:06.236Z,9.03
2019-03-24T20:55:09.666Z,8.98
2019-03-24T20:58:13.005Z,8.97
2019-03-24T21:01:18.732Z,8.72
2019-03-24T21:04:21.423Z,8.78
2019-03-24T21:07:24.832Z,8.69
2019-03-24T21:10:29.843Z,8.57
2019-03-24T21:13:33.233Z,8.33
2019-03-24T21:16:36.570Z,8.42
2019-03-24T21:19:39.907Z,8.86
2019-03-24T21:22:43.227Z,8.85
2019-03-24T21:25:46.568Z,8.74
2019-03-24T21:28:51.931Z,8.61
2019-03-24T21:31:55.328Z,8.48
2019-03-24T21:34:58.721Z,8.40
2019-03-24T21:38:02.039Z,8.19
2019-03-24T21:41:05.397Z,8.01
2019-03-24T21:44:08.782Z,7.91
2019-03-24T21:47:12.123Z,8.10
2019-03-24T21:50:15.442Z,8.06
2019-03-24T21:53:18.757Z,8.13
2019-03-24T21:56:22.163Z,8.11
2019-03-24T21:59:25.452Z,8.14
2019-03-24T22:02:28.958Z,8.22
2019-03-24T22:05:32.293Z,8.27
2019-03-24T22:08:35.618Z,8.23
2019-03-24T22:11:38.969Z,8.29
2019-03-24T22:14:42.307Z,8.19
2019-03-24T22:17:45.624Z,8.15
2019-03-24T22:20:49.389Z,8.19
2019-03-24T22:23:52.809Z,8.20
2019-03-24T22:26:56.152Z,7.81
2019-03-24T22:29:59.455Z,7.97
2019-03-24T22:33:02.780Z,8.08
2019-03-24T22:36:06.110Z,7.97
2019-03-24T22:39:09.462Z,8.11
2019-03-24T22:42:12.862Z,7.92
2019-03-24T22:45:16.235Z,8.04
2019-03-24T22:48:19.560Z,7.99
2019-03-24T22:51:22.900Z,7.96
2019-03-24T22:54:29.100Z,8.00
2019-03-24T22:57:32.728Z,7.80
2019-03-24T23:00:51.087Z,7.91
2019-03-24T23:03:56.059Z,7.72
2019-03-24T23:06:59.394Z,7.66
2019-03-24T23:10:02.756Z,7.73
2019-03-24T23:13:06.094Z,7.66
2019-03-24T23:16:09.484Z,7.50
2019-03-24T23:19:12.815Z,7.60
2019-03-24T23:22:16.118Z,7.29
2019-03-24T23:25:19.453Z,7.20
2019-03-24T23:28:22.776Z,7.11
2019-03-24T23:31:26.083Z,7.38
2019-03-24T23:34:29.476Z,7.09
2019-03-24T23:37:32.818Z,6.94
2019-03-24T23:40:36.125Z,7.11
2019-03-24T23:43:39.429Z,7.17
2019-03-24T23:46:42.823Z,7.09
2019-03-24T23:49:46.137Z,7.12
2019-03-24T23:52:49.446Z,7.05
2019-03-24T23:55:52.819Z,7.11
2019-03-24T23:58:56.143Z,6.98
